Time;durP1;ratioP1;P1;durP2;ratioP2;P2;SDS_P1;SDS_P2;PMS_P1;PMS_P2;Temp;Humidity;BMP_temperature;BMP_pressure;BME280_temperature;BME280_humidity;BME280_pressure;Samples;Min_cycle;Max_cycle;Signal;HPM_P1;HPM_P2
2022/07/06 00:01:15;;;;;;;5.97;1.50;;;14.60;99.90;;;;;;5050231;28;20053;-78
2022/07/06 00:03:41;;;;;;;5.45;2.10;;;14.60;99.90;;;;;;5051389;28;20071;-78
2022/07/06 00:06:07;;;;;;;5.47;1.63;;;14.60;99.90;;;;;;5038827;28;20041;-78
2022/07/06 00:08:33;;;;;;;4.43;1.45;;;14.60;99.90;;;;;;5024965;28;20094;-78
2022/07/06 00:10:58;;;;;;;4.18;1.30;;;14.50;99.90;;;;;;5051335;28;20032;-77
2022/07/06 00:13:24;;;;;;;7.10;1.80;;;14.50;99.90;;;;;;5029389;28;20044;-77
2022/07/06 00:15:49;;;;;;;4.72;1.77;;;14.50;99.90;;;;;;5055060;28;20036;-76
2022/07/06 00:18:15;;;;;;;3.47;1.48;;;14.60;99.90;;;;;;5053286;28;20116;-78
2022/07/06 00:20:41;;;;;;;6.57;1.58;;;14.60;99.90;;;;;;5053227;28;20025;-77
2022/07/06 00:23:06;;;;;;;7.22;1.73;;;14.60;99.90;;;;;;5054655;28;20040;-77
2022/07/06 00:25:32;;;;;;;4.38;1.60;;;14.60;99.90;;;;;;5038284;28;20503;-77
2022/07/06 00:27:57;;;;;;;5.15;1.50;;;14.60;99.90;;;;;;5054487;28;20041;-78
2022/07/06 00:30:23;;;;;;;3.25;1.42;;;14.60;99.90;;;;;;5026669;28;20554;-76
2022/07/06 00:32:48;;;;;;;4.10;1.65;;;14.60;99.90;;;;;;5034837;28;20221;-77
2022/07/06 00:35:14;;;;;;;2.80;1.30;;;14.60;99.90;;;;;;5034657;28;20120;-76
2022/07/06 00:37:39;;;;;;;2.00;1.25;;;14.60;99.90;;;;;;5034557;28;20409;-76
2022/07/06 00:40:06;;;;;;;4.78;1.50;;;14.60;99.90;;;;;;5068906;28;20041;-77
2022/07/06 00:42:43;;;;;;;4.53;1.58;;;14.50;99.90;;;;;;5071155;28;20048;-77
2022/07/06 00:45:10;;;;;;;4.53;1.80;;;14.40;99.90;;;;;;5037101;28;20124;-77
2022/07/06 00:47:35;;;;;;;5.57;1.35;;;14.40;99.90;;;;;;5046537;28;20037;-77
2022/07/06 00:50:14;;;;;;;2.72;1.40;;;14.50;99.90;;;;;;5054068;28;20039;-78
2022/07/06 00:52:41;;;;;;;4.00;1.30;;;14.50;99.90;;;;;;5036932;28;20123;-77
2022/07/06 00:55:08;;;;;;;3.35;1.30;;;14.40;99.90;;;;;;5054337;28;20131;-77
2022/07/06 00:57:34;;;;;;;5.07;1.48;;;14.40;99.90;;;;;;5054189;28;20041;-78
2022/07/06 01:00:01;;;;;;;5.35;1.50;;;14.40;99.90;;;;;;5051055;28;20037;-78
2022/07/06 01:02:26;;;;;;;4.72;1.40;;;14.40;99.90;;;;;;5037908;28;20048;-78
2022/07/06 01:04:52;;;;;;;4.72;1.58;;;14.40;99.90;;;;;;5054141;28;20041;-77
2022/07/06 01:07:18;;;;;;;5.05;1.52;;;14.40;99.90;;;;;;5036356;28;20045;-76
2022/07/06 01:09:43;;;;;;;2.88;1.23;;;14.30;99.90;;;;;;5052995;28;20040;-75
2022/07/06 01:12:09;;;;;;;3.33;1.50;;;14.30;99.90;;;;;;5053869;28;20135;-75
2022/07/06 01:14:36;;;;;;;6.88;1.52;;;14.30;99.90;;;;;;5053945;28;20041;-75
2022/07/06 01:17:02;;;;;;;7.93;1.77;;;14.20;99.90;;;;;;5037041;28;20041;-75
2022/07/06 01:19:28;;;;;;;5.85;1.30;;;14.20;99.90;;;;;;5053518;28;20484;-76
2022/07/06 01:21:53;;;;;;;4.95;1.50;;;14.20;99.90;;;;;;5051397;28;20194;-76
2022/07/06 01:24:19;;;;;;;2.22;1.10;;;14.30;99.90;;;;;;5052916;28;20033;-76
2022/07/06 01:26:45;;;;;;;4.85;1.30;;;14.20;99.90;;;;;;5053704;28;20489;-77
2022/07/06 01:29:10;;;;;;;3.63;1.23;;;14.30;99.90;;;;;;5041171;28;20036;-75
2022/07/06 01:31:48;;;;;;;4.85;1.45;;;14.20;99.90;;;;;;5033677;28;20049;-77
2022/07/06 01:34:16;;;;;;;5.55;1.60;;;14.20;99.90;;;;;;5046216;28;20420;-77
2022/07/06 01:36:41;;;;;;;4.25;1.40;;;14.20;99.90;;;;;;5052296;28;20051;-76
2022/07/06 01:39:08;;;;;;;3.63;1.30;;;14.30;99.90;;;;;;5025537;28;20041;-76
2022/07/06 01:41:34;;;;;;;4.55;1.40;;;14.30;99.90;;;;;;5033523;28;20120;-76
2022/07/06 01:44:00;;;;;;;5.10;1.58;;;14.20;99.90;;;;;;5043538;28;20120;-74
2022/07/06 01:46:26;;;;;;;5.28;1.38;;;14.20;99.90;;;;;;5053480;28;20036;-74
2022/07/06 01:48:51;;;;;;;4.93;1.33;;;14.10;99.90;;;;;;5027493;28;20466;-75
2022/07/06 01:51:17;;;;;;;5.30;1.45;;;14.10;99.90;;;;;;5033340;28;20120;-75
2022/07/06 01:53:43;;;;;;;5.38;1.70;;;14.10;99.90;;;;;;5035689;28;21577;-75
2022/07/06 01:56:09;;;;;;;3.63;1.10;;;14.10;99.90;;;;;;5051869;28;20071;-75
2022/07/06 01:58:35;;;;;;;4.43;1.30;;;14.10;99.90;;;;;;5022196;28;20489;-75
2022/07/06 02:01:07;;;;;;;3.88;1.20;;;14.10;99.90;;;;;;5049074;28;20041;-75
2022/07/06 02:03:33;;;;;;;;;;;14.00;99.90;;;;;;5053441;28;20068;-75
2022/07/06 02:05:58;;;;;;;4.05;1.50;;;14.00;99.90;;;;;;5051643;28;20007;-75
2022/07/06 02:08:24;;;;;;;3.72;1.38;;;13.90;99.90;;;;;;5052095;28;20064;-76
2022/07/06 02:10:49;;;;;;;3.78;1.25;;;13.90;99.90;;;;;;5052855;28;20079;-76
2022/07/06 02:13:15;;;;;;;4.78;1.40;;;13.90;99.90;;;;;;5054922;28;20089;-74
2022/07/06 02:15:40;;;;;;;3.83;1.20;;;13.90;99.90;;;;;;5031585;28;20079;-75
2022/07/06 02:18:07;;;;;;;4.43;1.20;;;13.90;99.90;;;;;;5037198;28;20092;-75
2022/07/06 02:20:32;;;;;;;3.30;1.00;;;13.90;99.90;;;;;;5050739;28;20033;-75
2022/07/06 02:22:58;;;;;;;4.60;1.30;;;14.00;99.90;;;;;;5051123;28;20086;-76
2022/07/06 02:25:23;;;;;;;4.30;1.23;;;13.90;99.90;;;;;;5052654;28;20047;-76
2022/07/06 02:27:49;;;;;;;3.50;1.15;;;13.90;99.90;;;;;;5067267;28;20040;-76
2022/07/06 02:30:14;;;;;;;4.80;1.30;;;14.00;99.90;;;;;;5034679;28;20076;-75
2022/07/06 02:32:40;;;;;;;4.85;1.40;;;14.00;99.90;;;;;;5056018;28;20046;-75
2022/07/06 02:35:06;;;;;;;5.82;1.38;;;14.00;99.90;;;;;;5051794;28;20032;-75
2022/07/06 02:37:31;;;;;;;3.08;1.05;;;14.00;99.90;;;;;;5035043;28;20072;-77
2022/07/06 02:39:57;;;;;;;4.22;1.40;;;13.90;99.90;;;;;;5051738;28;20103;-76
2022/07/06 02:42:23;;;;;;;6.05;1.30;;;13.90;99.90;;;;;;5049720;28;20048;-76
2022/07/06 02:44:48;;;;;;;6.80;1.30;;;13.90;99.90;;;;;;5039684;28;20029;-76
2022/07/06 02:47:14;;;;;;;4.18;1.10;;;13.90;99.90;;;;;;5049926;28;20120;-76
2022/07/06 02:49:39;;;;;;;4.50;1.35;;;13.90;99.90;;;;;;5067048;28;20497;-77
2022/07/06 02:52:05;;;;;;;5.90;1.30;;;13.90;99.90;;;;;;5052223;28;20392;-77
2022/07/06 02:54:30;;;;;;;5.03;1.45;;;13.80;99.90;;;;;;5050341;28;20134;-76
2022/07/06 02:56:56;;;;;;;4.13;1.25;;;13.80;99.90;;;;;;5044714;28;20041;-76
2022/07/06 02:59:22;;;;;;;3.40;1.40;;;13.80;99.90;;;;;;5051483;28;20064;-75
2022/07/06 03:01:47;;;;;;;4.53;1.30;;;13.80;99.90;;;;;;5050043;28;20481;-76
2022/07/06 03:04:13;;;;;;;5.03;1.48;;;13.80;99.90;;;;;;5052218;28;20075;-76
2022/07/06 03:06:38;;;;;;;5.10;1.60;;;13.70;99.90;;;;;;5063738;28;20059;-74
2022/07/06 03:09:04;;;;;;;4.68;1.27;;;13.70;99.90;;;;;;5051866;28;20045;-75
2022/07/06 03:11:29;;;;;;;5.70;1.70;;;13.70;99.90;;;;;;5051076;28;20052;-76
2022/07/06 03:13:55;;;;;;;4.40;1.33;;;13.80;99.90;;;;;;5035709;28;20076;-75
2022/07/06 03:16:20;;;;;;;3.95;1.25;;;13.80;99.90;;;;;;5051876;28;20516;-75
2022/07/06 03:18:46;;;;;;;5.18;1.60;;;13.80;99.90;;;;;;5034132;28;20083;-75
2022/07/06 03:21:12;;;;;;;5.05;1.40;;;13.80;99.90;;;;;;5034389;28;20041;-75
2022/07/06 03:23:37;;;;;;;5.85;1.40;;;13.80;99.90;;;;;;5033485;28;20032;-75
2022/07/06 03:26:03;;;;;;;4.20;1.45;;;13.80;99.90;;;;;;5050918;28;20029;-76
2022/07/06 03:28:28;;;;;;;5.20;1.40;;;13.80;99.90;;;;;;5067834;28;20510;-76
2022/07/06 03:30:54;;;;;;;3.58;1.23;;;13.80;99.90;;;;;;5050474;28;20070;-75
2022/07/06 03:33:20;;;;;;;3.10;1.25;;;13.80;99.90;;;;;;5046091;28;20041;-75
2022/07/06 03:35:45;;;;;;;3.75;1.27;;;13.80;99.90;;;;;;5033174;28;20046;-75
2022/07/06 03:38:11;;;;;;;3.72;1.20;;;13.80;99.90;;;;;;5033810;28;20122;-76
2022/07/06 03:40:37;;;;;;;3.65;1.35;;;13.80;99.90;;;;;;5037052;28;20044;-75
2022/07/06 03:43:02;;;;;;;4.15;1.33;;;13.70;99.90;;;;;;5050208;28;20032;-75
2022/07/06 03:45:28;;;;;;;5.82;1.50;;;13.70;99.90;;;;;;5042477;28;20028;-75
2022/07/06 03:47:53;;;;;;;5.22;1.52;;;13.70;99.90;;;;;;5069527;28;20041;-76
2022/07/06 03:50:19;;;;;;;7.47;1.50;;;13.70;99.90;;;;;;5055367;28;20040;-76
2022/07/06 03:52:44;;;;;;;4.82;1.35;;;13.70;99.90;;;;;;5053491;28;20052;-76
2022/07/06 03:55:11;;;;;;;5.43;1.55;;;13.70;99.90;;;;;;5055067;28;20123;-76
2022/07/06 03:57:38;;;;;;;4.18;1.30;;;13.70;99.90;;;;;;5037771;28;20090;-76
2022/07/06 04:00:04;;;;;;;4.53;1.30;;;13.70;99.90;;;;;;5055310;28;20052;-75
2022/07/06 04:02:30;;;;;;;3.80;1.20;;;13.70;99.90;;;;;;5052561;28;20481;-75
2022/07/06 04:04:56;;;;;;;4.25;1.63;;;13.70;99.90;;;;;;5054114;28;20037;-75
2022/07/06 04:07:21;;;;;;;2.45;1.10;;;13.70;99.90;;;;;;5057904;28;20033;-75
2022/07/06 04:09:47;;;;;;;3.95;1.25;;;13.70;99.90;;;;;;5035371;28;20493;-75
2022/07/06 04:12:12;;;;;;;3.95;1.38;;;13.70;99.90;;;;;;5036355;28;20045;-75
2022/07/06 04:14:38;;;;;;;3.95;1.10;;;13.70;99.90;;;;;;5047552;28;20102;-75
2022/07/06 04:17:51;;;;;;;4.20;1.40;;;13.60;99.90;;;;;;5036511;28;20090;-75
2022/07/06 04:19:50;;;;;;;3.58;1.25;;;13.60;99.90;;;;;;5054022;28;20041;-75
2022/07/06 04:22:16;;;;;;;2.55;1.35;;;13.60;99.90;;;;;;5038432;28;20500;-75
2022/07/06 04:24:42;;;;;;;3.45;1.20;;;13.50;99.90;;;;;;5059309;28;20094;-75
2022/07/06 04:27:08;;;;;;;3.60;1.10;;;13.50;99.90;;;;;;5036020;28;20043;-76
2022/07/06 04:29:33;;;;;;;5.63;1.40;;;13.50;99.90;;;;;;5035859;28;20040;-75
2022/07/06 04:31:59;;;;;;;5.55;1.52;;;13.50;99.90;;;;;;5054223;28;20043;-76
2022/07/06 04:34:24;;;;;;;3.95;1.40;;;13.40;99.90;;;;;;5031871;28;20041;-76
2022/07/06 04:36:50;;;;;;;5.80;1.20;;;13.40;99.90;;;;;;5071340;28;20492;-75
2022/07/06 04:39:16;;;;;;;5.68;1.42;;;13.40;99.90;;;;;;5053352;28;20037;-75
2022/07/06 04:41:41;;;;;;;3.03;1.20;;;13.40;99.90;;;;;;5052269;28;20044;-75
2022/07/06 04:44:07;;;;;;;3.50;1.20;;;13.40;99.90;;;;;;5052864;28;20459;-75
2022/07/06 04:46:32;;;;;;;5.82;1.15;;;13.40;99.90;;;;;;5068255;28;20068;-76
2022/07/06 04:48:58;;;;;;;4.35;1.27;;;13.50;99.90;;;;;;5049111;28;20127;-75
2022/07/06 04:51:23;;;;;;;2.90;1.13;;;13.50;99.90;;;;;;5052838;28;20037;-76
2022/07/06 04:53:49;;;;;;;6.25;1.65;;;13.50;99.90;;;;;;5044936;28;20045;-76
2022/07/06 04:56:14;;;;;;;5.28;1.00;;;13.60;99.90;;;;;;5044533;28;20061;-76
2022/07/06 04:58:40;;;;;;;4.38;1.20;;;13.60;99.90;;;;;;5053703;28;20036;-75
2022/07/06 05:01:06;;;;;;;3.20;1.00;;;13.60;99.90;;;;;;5036849;28;20032;-75
2022/07/06 05:03:33;;;;;;;5.75;1.10;;;13.70;99.90;;;;;;5045429;28;20057;-75
2022/07/06 05:05:58;;;;;;;5.00;1.02;;;13.70;99.90;;;;;;5034272;28;20083;-75
2022/07/06 05:08:24;;;;;;;4.32;1.02;;;13.70;99.90;;;;;;5050532;28;20041;-75
2022/07/06 05:10:51;;;;;;;7.20;1.30;;;13.80;99.90;;;;;;5070688;28;20048;-76
2022/07/06 05:13:17;;;;;;;4.68;1.20;;;13.90;99.90;;;;;;5052228;28;20048;-76
2022/07/06 05:15:42;;;;;;;6.25;1.40;;;14.00;99.90;;;;;;5040447;28;20531;-76
2022/07/06 05:18:08;;;;;;;4.60;0.90;;;14.00;99.90;;;;;;5054036;28;20044;-76
2022/07/06 05:20:34;;;;;;;4.38;1.05;;;14.00;99.90;;;;;;5066878;28;20432;-76
2022/07/06 05:22:59;;;;;;;4.35;1.20;;;14.00;99.90;;;;;;5017844;28;20044;-75
2022/07/06 05:25:25;;;;;;;3.55;1.13;;;14.00;99.90;;;;;;5045402;28;20037;-75
2022/07/06 05:27:50;;;;;;;5.15;1.23;;;14.00;99.90;;;;;;5030668;28;20504;-76
2022/07/06 05:30:16;;;;;;;5.57;1.00;;;14.10;99.90;;;;;;5035168;28;20037;-76
2022/07/06 05:32:41;;;;;;;4.00;1.13;;;14.10;99.90;;;;;;5034858;28;20400;-76
2022/07/06 05:35:08;;;;;;;6.65;1.13;;;14.20;99.90;;;;;;5066324;28;20041;-76
2022/07/06 05:37:33;;;;;;;6.93;1.20;;;14.20;99.90;;;;;;5066318;28;20068;-76
2022/07/06 05:39:59;;;;;;;5.20;0.98;;;14.30;99.90;;;;;;5033486;28;20080;-76
2022/07/06 05:42:24;;;;;;;6.30;1.10;;;14.30;99.90;;;;;;5033672;28;20087;-75
2022/07/06 05:44:54;;;;;;;3.60;1.10;;;14.40;99.90;;;;;;5052499;28;20378;-76
2022/07/06 05:50:13;;;;;;;6.57;1.70;;;14.40;99.90;;;;;;5052060;28;20045;-75
2022/07/06 05:52:45;;;;;;;4.22;0.90;;;14.40;99.90;;;;;;5028304;28;20481;-76
2022/07/06 05:55:14;;;;;;;2.65;0.90;;;14.40;99.90;;;;;;5050812;28;20079;-73
2022/07/06 05:57:40;;;;;;;6.03;1.15;;;14.40;99.90;;;;;;5052135;28;20489;-79
2022/07/06 06:00:06;;;;;;;5.72;1.10;;;14.40;99.90;;;;;;5031871;28;20043;-78
2022/07/06 06:02:40;;;;;;;4.10;1.23;;;14.40;99.90;;;;;;5052137;28;20537;-78
2022/07/06 06:05:08;;;;;;;4.45;0.90;;;14.40;99.90;;;;;;5041432;28;20505;-79
2022/07/06 06:07:35;;;;;;;5.15;0.98;;;14.50;99.90;;;;;;5035250;28;20083;-78
2022/07/06 06:10:03;;;;;;;6.25;1.08;;;14.50;99.90;;;;;;5068722;28;20037;-78
2022/07/06 06:12:29;;;;;;;3.95;1.13;;;14.50;99.90;;;;;;5029108;28;20064;-78
2022/07/06 06:14:54;;;;;;;5.38;1.17;;;14.60;99.90;;;;;;5062397;28;20123;-78
2022/07/06 06:17:20;;;;;;;4.63;1.38;;;14.60;99.90;;;;;;5023580;28;20037;-78
2022/07/06 06:19:45;;;;;;;2.50;0.70;;;14.50;99.90;;;;;;5051794;28;20041;-78
2022/07/06 06:22:11;;;;;;;5.25;0.90;;;14.50;99.90;;;;;;5040332;28;20042;-78
2022/07/06 06:24:37;;;;;;;4.75;0.88;;;14.60;99.90;;;;;;5049671;28;20076;-78
2022/07/06 06:27:03;;;;;;;3.13;0.70;;;14.60;99.90;;;;;;5052303;28;20405;-78
2022/07/06 06:29:28;;;;;;;4.45;0.80;;;14.60;99.90;;;;;;5066183;28;20721;-78
2022/07/06 06:31:54;;;;;;;1.60;0.70;;;14.60;99.90;;;;;;5031905;28;20029;-78
2022/07/06 06:34:19;;;;;;;5.18;0.73;;;14.70;99.90;;;;;;5052017;28;20553;-78
2022/07/06 06:36:45;;;;;;;1.52;0.70;;;14.70;99.90;;;;;;5040693;28;20049;-78
2022/07/06 06:39:11;;;;;;;5.32;1.27;;;14.70;99.90;;;;;;5047156;28;20040;-78
2022/07/06 06:41:36;;;;;;;3.22;0.70;;;14.70;99.90;;;;;;5049967;28;20123;-78
2022/07/06 06:44:02;;;;;;;2.05;0.80;;;14.70;99.90;;;;;;5050118;28;20033;-79
2022/07/06 06:46:27;;;;;;;4.38;0.90;;;14.70;99.90;;;;;;5032263;28;20048;-78
2022/07/06 06:48:53;;;;;;;4.55;1.17;;;14.70;99.90;;;;;;5052047;28;20047;-78
2022/07/06 06:51:20;;;;;;;5.32;0.95;;;14.70;99.90;;;;;;5050866;28;20040;-78
2022/07/06 06:53:46;;;;;;;4.55;0.85;;;14.70;99.90;;;;;;5033469;28;20071;-78
2022/07/06 06:56:11;;;;;;;3.25;0.80;;;14.70;99.90;;;;;;5050057;28;20040;-78
2022/07/06 06:58:38;;;;;;;4.68;0.98;;;14.70;99.90;;;;;;5033086;28;20037;-78
2022/07/06 07:01:04;;;;;;;3.65;0.80;;;14.70;99.90;;;;;;5050579;28;20124;-78
2022/07/06 07:03:30;;;;;;;4.72;1.00;;;14.60;99.90;;;;;;5035216;28;20040;-78
2022/07/06 07:05:56;;;;;;;2.30;0.80;;;14.70;99.90;;;;;;5050461;28;20110;-78
2022/07/06 07:08:22;;;;;;;5.28;1.00;;;14.80;99.90;;;;;;5033981;28;20037;-78
2022/07/06 07:10:47;;;;;;;6.07;1.20;;;14.90;99.90;;;;;;5034409;28;20056;-78
2022/07/06 07:13:13;;;;;;;4.47;0.90;;;15.00;99.90;;;;;;5017824;28;20531;-78
2022/07/06 07:15:39;;;;;;;5.95;1.00;;;15.10;99.90;;;;;;5050128;28;20501;-78
2022/07/06 07:18:04;;;;;;;4.10;0.98;;;15.10;99.90;;;;;;5051648;28;20047;-78
2022/07/06 07:20:31;;;;;;;2.45;0.70;;;15.20;99.90;;;;;;5023785;28;20437;-78
2022/07/06 07:22:57;;;;;;;3.28;0.80;;;15.30;99.90;;;;;;5062895;28;20063;-78
2022/07/06 07:25:22;;;;;;;4.47;0.80;;;15.50;99.90;;;;;;5051083;28;20036;-78
2022/07/06 07:27:48;;;;;;;4.40;0.90;;;15.60;99.90;;;;;;5048054;28;20040;-78
2022/07/06 07:30:13;;;;;;;4.82;0.80;;;15.80;99.90;;;;;;5037138;28;20052;-78
2022/07/06 07:32:40;;;;;;;4.70;0.70;;;16.00;99.90;;;;;;5048645;28;20045;-71
2022/07/06 07:35:06;;;;;;;3.63;0.90;;;16.20;99.90;;;;;;5050475;28;20041;-78
2022/07/06 07:37:32;;;;;;;4.03;0.90;;;16.40;99.90;;;;;;5021896;28;20041;-78
2022/07/06 07:39:58;;;;;;;4.65;0.93;;;16.60;99.90;;;;;;5050504;28;20040;-78
2022/07/06 07:42:24;;;;;;;6.55;1.17;;;16.50;99.90;;;;;;5067299;28;20551;-78
2022/07/06 07:44:49;;;;;;;5.80;1.02;;;16.50;99.90;;;;;;5057527;28;20038;-78
2022/07/06 07:47:15;;;;;;;6.22;1.00;;;16.50;99.90;;;;;;5031102;28;20410;-79
2022/07/06 07:49:41;;;;;;;4.90;0.70;;;16.50;99.90;;;;;;5053930;28;20052;-78
2022/07/06 07:52:07;;;;;;;5.65;0.82;;;16.60;99.90;;;;;;5050512;28;20048;-78
2022/07/06 07:54:33;;;;;;;7.20;1.13;;;16.70;99.90;;;;;;5050227;28;20055;-78
2022/07/06 07:56:59;;;;;;;4.80;0.93;;;16.80;99.90;;;;;;5050635;28;20140;-78
2022/07/06 07:59:24;;;;;;;5.65;0.90;;;17.00;99.90;;;;;;5031050;28;20033;-78
2022/07/06 08:01:50;;;;;;;3.58;0.80;;;17.10;99.90;;;;;;5026513;28;20091;-78
2022/07/06 08:04:16;;;;;;;5.13;0.90;;;17.20;99.90;;;;;;5050461;28;20456;-79
2022/07/06 08:06:42;;;;;;;3.78;0.85;;;17.30;99.90;;;;;;5052181;28;20044;-78
2022/07/06 08:09:07;;;;;;;4.10;0.80;;;17.40;99.90;;;;;;5034008;28;20037;-78
2022/07/06 08:11:36;;;;;;;4.95;0.88;;;17.50;99.90;;;;;;5031440;28;20098;-78
2022/07/06 08:14:03;;;;;;;6.70;1.10;;;17.50;99.90;;;;;;5033104;28;20041;-78
2022/07/06 08:16:28;;;;;;;4.97;0.82;;;17.40;99.90;;;;;;5050891;28;20060;-78
2022/07/06 08:18:54;;;;;;;5.00;0.88;;;17.30;99.90;;;;;;5052542;28;20486;-78
2022/07/06 08:21:20;;;;;;;8.38;0.95;;;17.10;99.90;;;;;;5050218;28;20041;-78
2022/07/06 08:23:46;;;;;;;5.93;1.00;;;17.00;99.90;;;;;;5049567;28;20040;-79
2022/07/06 08:26:11;;;;;;;3.83;1.13;;;16.70;99.90;;;;;;5050651;28;20037;-78
2022/07/06 08:28:37;;;;;;;4.03;0.80;;;16.60;99.90;;;;;;5053550;28;20067;-78
2022/07/06 08:31:03;;;;;;;5.05;0.93;;;16.40;99.90;;;;;;5054832;28;20053;-79
2022/07/06 08:33:28;;;;;;;4.25;0.70;;;16.40;99.90;;;;;;5054223;28;20025;-78
2022/07/06 08:35:54;;;;;;;3.22;0.80;;;16.30;99.90;;;;;;5051481;28;20119;-78
2022/07/06 08:38:20;;;;;;;5.70;0.70;;;16.30;99.90;;;;;;5054256;28;20048;-78
2022/07/06 08:40:48;;;;;;;3.83;0.90;;;16.30;99.90;;;;;;5053388;28;20143;-78
2022/07/06 08:43:15;;;;;;;4.45;0.80;;;16.40;99.90;;;;;;5053832;28;20041;-78
2022/07/06 08:45:43;;;;;;;4.72;0.80;;;16.50;99.90;;;;;;5037476;28;20083;-78
2022/07/06 08:48:10;;;;;;;4.60;0.80;;;16.70;99.90;;;;;;5049065;28;20045;-78
2022/07/06 08:50:36;;;;;;;2.65;0.63;;;16.80;99.90;;;;;;5044356;28;20055;-78
2022/07/06 08:53:02;;;;;;;2.63;0.60;;;17.00;99.90;;;;;;5053940;28;20048;-79
2022/07/06 08:55:28;;;;;;;2.47;0.70;;;17.30;99.90;;;;;;5053215;28;20052;-79
2022/07/06 08:57:55;;;;;;;3.22;0.60;;;17.30;99.90;;;;;;5052708;28;20037;-78
2022/07/06 09:00:21;;;;;;;7.72;0.88;;;17.60;99.90;;;;;;5034559;28;20041;-79
2022/07/06 09:02:50;;;;;;;3.42;0.80;;;17.60;99.90;;;;;;5057432;28;20045;-78
2022/07/06 09:05:17;;;;;;;5.55;1.00;;;17.50;99.90;;;;;;5051056;28;20461;-78
2022/07/06 09:07:48;;;;;;;2.80;0.82;;;17.50;99.90;;;;;;5039873;28;20037;-78
2022/07/06 09:10:16;;;;;;;2.63;1.17;;;17.40;99.90;;;;;;5050903;28;20492;-78
2022/07/06 09:12:42;;;;;;;3.72;0.70;;;17.40;99.90;;;;;;5052453;28;20128;-78
2022/07/06 09:15:08;;;;;;;3.30;0.70;;;17.30;99.90;;;;;;5069761;28;20715;-78
2022/07/06 09:17:39;;;;;;;4.50;0.70;;;17.30;99.90;;;;;;5053433;28;20052;-78
2022/07/06 09:20:10;;;;;;;3.20;0.60;;;17.20;99.90;;;;;;5021613;28;20490;-78
2022/07/06 09:22:37;;;;;;;3.42;1.02;;;17.10;99.90;;;;;;5063877;28;20226;-79
2022/07/06 09:25:14;;;;;;;3.63;0.88;;;17.20;99.90;;;;;;5053307;28;20508;-78
2022/07/06 09:27:47;;;;;;;4.00;0.73;;;17.30;99.90;;;;;;5051672;28;20482;-78
2022/07/06 09:30:14;;;;;;;7.15;0.95;;;17.40;99.90;;;;;;5053235;28;20044;-78
2022/07/06 09:32:48;;;;;;;3.83;0.80;;;17.40;99.90;;;;;;5035654;28;20099;-78
2022/07/06 09:35:38;;;;;;;2.70;0.75;;;17.50;99.90;;;;;;5053337;28;20501;-78
2022/07/06 09:38:14;;;;;;;2.95;0.68;;;17.30;99.90;;;;;;5044834;28;20045;-78
2022/07/06 09:40:45;;;;;;;3.20;0.85;;;17.30;99.90;;;;;;5036713;28;20082;-78
2022/07/06 09:43:14;;;;;;;4.53;0.77;;;17.20;99.90;;;;;;5052127;28;20041;-78
2022/07/06 09:45:45;;;;;;;5.32;0.70;;;17.20;99.90;;;;;;5068966;28;20045;-78
2022/07/06 09:48:18;;;;;;;3.75;0.68;;;17.20;99.90;;;;;;5051388;28;20118;-78
2022/07/06 09:50:52;;;;;;;5.55;0.70;;;17.20;99.90;;;;;;5049115;28;20040;-78
2022/07/06 09:53:19;;;;;;;2.92;0.63;;;17.30;99.90;;;;;;5037276;28;20055;-78
2022/07/06 09:55:50;;;;;;;4.38;1.17;;;17.30;99.90;;;;;;5051029;28;20053;-78
2022/07/06 09:58:17;;;;;;;2.95;0.70;;;17.50;99.90;;;;;;5043569;28;20037;-78
2022/07/06 10:00:44;;;;;;;7.35;0.82;;;17.70;99.90;;;;;;5044032;28;20128;-78
2022/07/06 10:03:10;;;;;;;3.03;0.80;;;17.80;99.90;;;;;;5034665;28;20128;-78
2022/07/06 10:05:38;;;;;;;3.63;0.80;;;18.00;99.90;;;;;;5036191;28;20123;-78
2022/07/06 10:08:05;;;;;;;4.80;0.80;;;18.00;99.90;;;;;;5049852;28;20040;-78
2022/07/06 10:10:32;;;;;;;4.97;0.80;;;18.00;99.90;;;;;;5049234;28;20084;-78
2022/07/06 10:12:59;;;;;;;3.40;0.70;;;18.00;99.90;;;;;;5049411;28;20056;-78
2022/07/06 10:15:26;;;;;;;3.72;1.15;;;18.00;99.90;;;;;;5036258;28;20044;-78
2022/07/06 10:17:54;;;;;;;3.78;0.70;;;18.00;99.90;;;;;;5034986;28;20048;-78
2022/07/06 10:20:20;;;;;;;3.47;0.50;;;18.20;99.90;;;;;;5052108;28;20037;-78
2022/07/06 10:22:48;;;;;;;2.75;0.80;;;18.30;99.90;;;;;;5045855;28;20040;-78
2022/07/06 10:25:19;;;;;;;2.15;0.50;;;18.30;99.90;;;;;;5035274;28;20043;-78
2022/07/06 10:27:46;;;;;;;2.70;0.60;;;18.20;99.90;;;;;;5033744;28;20969;-77
2022/07/06 10:30:12;;;;;;;3.95;0.80;;;18.10;99.90;;;;;;5051662;28;20062;-78
2022/07/06 10:32:40;;;;;;;4.68;0.82;;;18.20;99.90;;;;;;5067522;28;20485;-78
2022/07/06 10:35:07;;;;;;;3.00;0.80;;;18.40;99.90;;;;;;5050807;28;20045;-78
2022/07/06 10:37:33;;;;;;;3.47;0.73;;;18.60;99.90;;;;;;5034801;28;20610;-78
2022/07/06 10:42:49;;;;;;;2.67;0.65;;;19.00;99.90;;;;;;5051767;28;20045;-77
2022/07/06 10:45:18;;;;;;;5.03;0.80;;;19.10;99.90;;;;;;5059829;28;20041;-78
2022/07/06 10:47:44;;;;;;;4.32;0.80;;;19.20;99.90;;;;;;5051769;28;20489;-78
2022/07/06 10:50:11;;;;;;;4.15;0.80;;;19.30;99.90;;;;;;5051555;28;20052;-78
2022/07/06 10:53:13;;;;;;;4.15;0.57;;;19.40;99.90;;;;;;5051538;28;20595;-78
2022/07/06 10:55:50;;;;;;;1.35;0.50;;;19.40;99.90;;;;;;5042850;28;20049;-78
2022/07/06 10:58:48;;;;;;;2.38;0.60;;;19.40;99.90;;;;;;5041159;28;20045;-78
2022/07/06 11:01:15;;;;;;;2.25;0.60;;;19.30;99.90;;;;;;5043740;28;20774;-78
2022/07/06 11:03:47;;;;;;;5.30;1.05;;;19.10;99.90;;;;;;5034487;28;20398;-78
2022/07/06 11:06:18;;;;;;;4.38;1.17;;;19.00;99.90;;;;;;5023000;28;20067;-78
2022/07/06 11:09:04;;;;;;;3.53;0.70;;;19.00;99.90;;;;;;5032276;28;20033;-78
2022/07/06 11:11:33;;;;;;;3.28;0.90;;;19.00;99.90;;;;;;5061619;28;20061;-77
2022/07/06 11:14:15;;;;;;;3.03;0.60;;;19.00;99.90;;;;;;5050331;28;20098;-78
2022/07/06 11:16:47;;;;;;;2.47;0.70;;;18.90;99.90;;;;;;5048814;28;20115;-78
2022/07/06 11:19:15;;;;;;;7.35;2.55;;;19.10;99.90;;;;;;5049839;28;20068;-78
2022/07/06 11:21:47;;;;;;;3.17;0.80;;;19.10;99.90;;;;;;5051234;28;20048;-78
2022/07/06 11:24:14;;;;;;;;;;;19.10;99.90;;;;;;5035347;28;20420;-78
2022/07/06 11:26:42;;;;;;;3.33;0.70;;;19.20;99.90;;;;;;5050434;28;20307;-78
2022/07/06 11:29:10;;;;;;;3.08;0.60;;;19.40;99.90;;;;;;5051244;28;20041;-77
2022/07/06 11:31:41;;;;;;;3.80;1.15;;;19.40;99.90;;;;;;5045091;28;20048;-76
2022/07/06 11:34:09;;;;;;;2.65;0.70;;;19.40;99.90;;;;;;5050776;28;20460;-76
2022/07/06 11:36:35;;;;;;;6.25;1.00;;;19.30;99.90;;;;;;5031997;28;20503;-76
2022/07/06 11:39:01;;;;;;;1.50;0.68;;;19.50;99.90;;;;;;5050112;28;20041;-76
2022/07/06 11:41:27;;;;;;;6.68;1.13;;;19.60;99.90;;;;;;5034843;28;20044;-77
2022/07/06 11:43:53;;;;;;;3.90;0.88;;;19.40;99.90;;;;;;5048523;28;20072;-77
2022/07/06 11:46:29;;;;;;;3.83;0.70;;;19.30;99.90;;;;;;5048643;28;20029;-77
2022/07/06 11:49:00;;;;;;;3.75;0.73;;;19.10;99.90;;;;;;5031866;28;20398;-77
2022/07/06 11:51:28;;;;;;;3.10;0.70;;;19.00;99.90;;;;;;5036972;28;20111;-76
2022/07/06 11:53:57;;;;;;;4.50;0.93;;;18.90;99.90;;;;;;5050725;28;20041;-77
2022/07/06 11:56:29;;;;;;;3.47;0.90;;;19.10;99.90;;;;;;5050472;28;20131;-76
2022/07/06 11:58:57;;;;;;;4.68;0.70;;;19.40;99.90;;;;;;5050966;28;20059;-77
2022/07/06 12:01:24;;;;;;;3.35;1.00;;;19.60;99.90;;;;;;5049663;28;20501;-77
2022/07/06 12:03:50;;;;;;;4.85;0.80;;;19.70;99.90;;;;;;5052365;28;20095;-77
2022/07/06 12:06:22;;;;;;;3.25;0.80;;;19.70;99.90;;;;;;5049675;28;20037;-77
2022/07/06 12:08:51;;;;;;;2.45;0.77;;;19.40;99.90;;;;;;5054292;28;20040;-76
2022/07/06 12:11:27;;;;;;;4.47;0.80;;;19.30;99.90;;;;;;5053781;28;20408;-76
2022/07/06 12:13:56;;;;;;;2.97;0.52;;;19.40;99.90;;;;;;5051576;28;20045;-77
2022/07/06 12:16:29;;;;;;;2.67;0.80;;;19.60;99.90;;;;;;5070486;28;20370;-77
2022/07/06 12:18:55;;;;;;;2.67;0.80;;;19.60;99.90;;;;;;5054525;28;20041;-77
2022/07/06 12:21:21;;;;;;;4.95;0.77;;;19.50;99.90;;;;;;5053270;28;20044;-76
2022/07/06 12:23:49;;;;;;;5.20;0.82;;;19.40;99.90;;;;;;5053973;28;20064;-77
2022/07/06 12:26:17;;;;;;;3.88;0.80;;;19.30;99.90;;;;;;5036827;28;20037;-77
2022/07/06 12:28:45;;;;;;;4.28;1.05;;;19.30;99.90;;;;;;5054348;28;20397;-76
2022/07/06 12:31:11;;;;;;;5.38;0.88;;;19.20;99.90;;;;;;5054370;28;20132;-76
2022/07/06 12:33:37;;;;;;;3.72;0.93;;;19.30;99.90;;;;;;5052265;28;20556;-76
2022/07/06 12:36:15;;;;;;;4.55;0.77;;;19.30;99.90;;;;;;5067311;28;20125;-77
2022/07/06 12:38:46;;;;;;;2.22;0.77;;;19.30;99.90;;;;;;5017493;28;20089;-77
2022/07/06 12:41:27;;;;;;;4.40;0.90;;;19.20;99.90;;;;;;5065210;28;20412;-76
2022/07/06 12:44:04;;;;;;;3.60;0.73;;;19.20;99.90;;;;;;5052231;28;20033;-76
2022/07/06 12:46:34;;;;;;;3.00;0.80;;;19.10;99.90;;;;;;5048945;28;20029;-76
2022/07/06 12:49:02;;;;;;;7.75;1.00;;;19.20;99.90;;;;;;5035519;28;20051;-76
2022/07/06 12:51:27;;;;;;;3.05;1.10;;;19.10;99.90;;;;;;5053070;28;20041;-76
2022/07/06 12:54:12;;;;;;;1.92;0.68;;;19.10;99.90;;;;;;5046882;28;20098;-77